Terminal Aerodrome Forecast
Issued by NWS Tuscon, AZ

Home | Current Version | Previous Version | Text Only | Print | Product List | Glossary On
Versions: 1 2 3 4 5 6 7 8 9 10 11 12 13 14 15
000
FTUS45 KTWC 292329
TAFDUG
TAF
KDUG 292329Z 3000/3024 35010KT P6SM FEW070 BKN110
     FM300200 35006KT P6SM SCT060 BKN100
     FM300400 10006KT P6SM BKN100 BKN200
     FM300900 VRB05KT P6SM SCT100 SCT200
     FM302100 02007KT P6SM VCSH SCT080 BKN200=

USA.gov is the U.S. government's official web portal to all federal, state and local government web resources and services.